Time;durP1;ratioP1;P1;durP2;ratioP2;P2;SDS_P1;SDS_P2;PMS_P1;PMS_P2;Temp;Humidity;BMP_temperature;BMP_pressure;BME280_temperature;BME280_humidity;BME280_pressure;Samples;Min_cycle;Max_cycle;Signal;HPM_P1;HPM_P2
2022/03/05 00:01:19;;;;;;;;;;;13.30;59.40;;;;;;5086876;28;19965;-69
2022/03/05 00:03:45;;;;;;;;;;;13.10;59.60;;;;;;5067554;28;20459;-69
2022/03/05 00:06:11;;;;;;;;;;;12.80;59.70;;;;;;5088345;28;19919;-69
2022/03/05 00:08:36;;;;;;;;;;;12.60;60.00;;;;;;5068832;28;20011;-69
2022/03/05 00:11:02;;;;;;;;;;;12.30;60.30;;;;;;5088762;28;20006;-69
2022/03/05 00:13:28;;;;;;;;;;;12.10;60.60;;;;;;5068015;28;19920;-69
2022/03/05 00:15:54;;;;;;;;;;;11.90;60.90;;;;;;5089008;28;20397;-69
2022/03/05 00:18:19;;;;;;;;;;;11.70;61.00;;;;;;5084941;28;19941;-68
2022/03/05 00:20:46;;;;;;;;;;;11.40;61.20;;;;;;5069310;28;20483;-68
2022/03/05 00:23:12;;;;;;;;;;;11.30;61.60;;;;;;5085291;28;19933;-68
2022/03/05 00:25:38;;;;;;;;;;;11.10;61.60;;;;;;5069460;28;19908;-68
2022/03/05 00:28:03;;;;;;;;;;;10.90;61.80;;;;;;5069048;28;19916;-68
2022/03/05 00:30:29;;;;;;;;;;;10.70;62.20;;;;;;5070381;28;19920;-68
2022/03/05 00:32:54;;;;;;;;;;;10.60;62.40;;;;;;5086213;28;20005;-68
2022/03/05 00:35:20;;;;;;;;;;;10.40;62.80;;;;;;5069601;28;20522;-68
2022/03/05 00:37:46;;;;;;;;;;;10.20;63.00;;;;;;5068402;28;19920;-68
2022/03/05 00:40:11;;;;;;;;;;;10.10;63.30;;;;;;5069237;28;20012;-68
2022/03/05 00:42:37;;;;;;;;;;;9.90;63.60;;;;;;5081946;28;19954;-68
2022/03/05 00:45:05;;;;;;;;;;;9.80;63.90;;;;;;5084913;28;19908;-68
2022/03/05 00:47:31;;;;;;;;;;;9.70;64.10;;;;;;5069275;28;20360;-68
2022/03/05 00:49:56;;;;;;;;;;;9.50;64.50;;;;;;5086337;28;20008;-68
2022/03/05 00:52:22;;;;;;;;;;;9.40;64.70;;;;;;5085379;28;19923;-68
2022/03/05 00:54:47;;;;;;;;;;;9.30;65.10;;;;;;5086391;28;19958;-68
2022/03/05 00:57:13;;;;;;;;;;;9.20;65.80;;;;;;5086324;28;20359;-68
2022/03/05 00:59:39;;;;;;;;;;;9.00;65.70;;;;;;5082173;28;20432;-68
2022/03/05 01:02:05;;;;;;;;;;;8.90;65.70;;;;;;5068470;28;19920;-68
2022/03/05 01:04:30;;;;;;;;;;;8.80;66.40;;;;;;5086956;28;19916;-68
2022/03/05 01:06:56;;;;;;;;;;;8.70;66.40;;;;;;5085518;28;21249;-68
2022/03/05 01:09:21;;;;;;;;;;;8.60;66.60;;;;;;5083394;28;19924;-68
2022/03/05 01:11:47;;;;;;;;;;;8.50;66.90;;;;;;5086159;28;19920;-68
2022/03/05 01:14:12;;;;;;;;;;;8.40;66.50;;;;;;5086695;28;19999;-68
2022/03/05 01:16:38;;;;;;;;;;;8.30;66.50;;;;;;5068020;28;19923;-68
2022/03/05 01:19:04;;;;;;;;;;;8.20;66.60;;;;;;5084901;28;20700;-68
2022/03/05 01:21:29;;;;;;;;;;;8.10;66.90;;;;;;5087700;28;20375;-68
2022/03/05 01:23:55;;;;;;;;;;;8.00;66.80;;;;;;5085166;28;19920;-68
2022/03/05 01:26:21;;;;;;;;;;;7.90;67.10;;;;;;5086336;28;19920;-68
2022/03/05 01:28:46;;;;;;;;;;;7.80;67.10;;;;;;5086018;28;19923;-68
2022/03/05 01:31:12;;;;;;;;;;;7.70;67.10;;;;;;5068462;28;20269;-68
2022/03/05 01:33:37;;;;;;;;;;;7.60;67.30;;;;;;5085413;28;20572;-68
2022/03/05 01:36:03;;;;;;;;;;;7.50;67.30;;;;;;5068944;28;19920;-68
2022/03/05 01:38:28;;;;;;;;;;;7.40;67.40;;;;;;5085086;28;19928;-68
2022/03/05 01:40:54;;;;;;;;;;;7.40;67.50;;;;;;5086830;28;19921;-68
2022/03/05 01:43:19;;;;;;;;;;;7.20;67.50;;;;;;5085609;28;19945;-68
2022/03/05 01:45:45;;;;;;;;;;;7.20;67.70;;;;;;5085916;28;20552;-68
2022/03/05 01:48:10;;;;;;;;;;;7.10;67.70;;;;;;5084813;28;20515;-68
2022/03/05 01:50:36;;;;;;;;;;;7.00;68.00;;;;;;5067292;28;19961;-68
2022/03/05 01:53:01;;;;;;;;;;;6.90;68.00;;;;;;5085863;28;20250;-68
2022/03/05 01:55:27;;;;;;;;;;;6.90;68.20;;;;;;5086046;28;19988;-68
2022/03/05 01:57:53;;;;;;;;;;;6.80;68.40;;;;;;5084220;28;19967;-68
2022/03/05 02:00:19;;;;;;;;;;;6.70;68.50;;;;;;5084763;28;20797;-68
2022/03/05 02:02:45;;;;;;;;;;;6.70;68.60;;;;;;5085336;28;19916;-68
2022/03/05 02:05:11;;;;;;;;;;;6.60;68.70;;;;;;5086638;28;19916;-68
2022/03/05 02:07:37;;;;;;;;;;;6.50;68.70;;;;;;5083955;28;20493;-68
2022/03/05 02:10:03;;;;;;;;;;;6.40;68.70;;;;;;5086730;28;19916;-68
2022/03/05 02:12:29;;;;;;;;;;;6.40;68.80;;;;;;5086479;28;20011;-68
2022/03/05 02:14:55;;;;;;;;;;;6.30;68.80;;;;;;5090331;28;19916;-67
2022/03/05 02:17:21;;;;;;;;;;;6.20;68.80;;;;;;5070614;28;20327;-68
2022/03/05 02:19:46;;;;;;;;;;;6.20;69.00;;;;;;5090785;28;19912;-67
2022/03/05 02:22:12;;;;;;;;;;;6.10;68.90;;;;;;5087543;28;19921;-67
2022/03/05 02:24:38;;;;;;;;;;;6.00;69.00;;;;;;5073026;28;20345;-68
2022/03/05 02:27:04;;;;;;;;;;;6.00;69.20;;;;;;5088912;28;20284;-68
2022/03/05 02:29:31;;;;;;;;;;;5.90;69.30;;;;;;5092739;28;19959;-68
2022/03/05 02:31:56;;;;;;;;;;;5.90;69.30;;;;;;5088780;28;19955;-68
2022/03/05 02:34:22;;;;;;;;;;;5.80;69.60;;;;;;5088242;28;20340;-67
2022/03/05 02:36:48;;;;;;;;;;;5.70;69.60;;;;;;5087236;28;19951;-67
2022/03/05 02:39:13;;;;;;;;;;;5.70;69.70;;;;;;5088237;28;19924;-68
2022/03/05 02:41:39;;;;;;;;;;;5.70;69.80;;;;;;5087859;28;20447;-67
2022/03/05 02:44:04;;;;;;;;;;;5.60;70.00;;;;;;5071617;28;20380;-68
2022/03/05 02:46:30;;;;;;;;;;;5.50;70.00;;;;;;5069313;28;19919;-67
2022/03/05 02:48:56;;;;;;;;;;;5.50;70.40;;;;;;5071039;28;20432;-67
2022/03/05 02:51:22;;;;;;;;;;;5.40;70.30;;;;;;5088019;28;19912;-67
2022/03/05 02:53:47;;;;;;;;;;;5.40;70.60;;;;;;5088443;28;19954;-67
2022/03/05 02:56:13;;;;;;;;;;;5.30;70.70;;;;;;5086830;28;19924;-67
2022/03/05 02:58:38;;;;;;;;;;;5.30;70.70;;;;;;5088510;28;19912;-68
2022/03/05 03:01:04;;;;;;;;;;;5.20;70.70;;;;;;5089439;28;19966;-67
2022/03/05 03:03:30;;;;;;;;;;;5.20;70.80;;;;;;5086260;28;19943;-67
2022/03/05 03:05:55;;;;;;;;;;;5.10;70.90;;;;;;5085621;28;19916;-67
2022/03/05 03:08:21;;;;;;;;;;;5.10;70.80;;;;;;5068437;28;19938;-67
2022/03/05 03:10:46;;;;;;;;;;;5.10;70.70;;;;;;5088383;28;20352;-67
2022/03/05 03:13:12;;;;;;;;;;;5.00;70.60;;;;;;5071330;28;20448;-67
2022/03/05 03:15:37;;;;;;;;;;;5.00;70.90;;;;;;5087885;28;19920;-67
2022/03/05 03:18:03;;;;;;;;;;;4.90;70.80;;;;;;5070367;28;19916;-67
2022/03/05 03:20:28;;;;;;;;;;;4.90;70.80;;;;;;5087897;28;19920;-67
2022/03/05 03:22:54;;;;;;;;;;;4.80;71.00;;;;;;5068216;28;19932;-67
2022/03/05 03:25:20;;;;;;;;;;;4.80;71.20;;;;;;5070470;28;19916;-67
2022/03/05 03:27:45;;;;;;;;;;;4.80;71.70;;;;;;5087652;28;19920;-67
2022/03/05 03:30:12;;;;;;;;;;;4.70;71.00;;;;;;5068752;28;19920;-67
2022/03/05 03:32:38;;;;;;;;;;;4.70;71.40;;;;;;5069502;28;19915;-67
2022/03/05 03:35:04;;;;;;;;;;;4.70;71.40;;;;;;5088887;28;19927;-67
2022/03/05 03:37:31;;;;;;;;;;;4.60;71.70;;;;;;5086165;28;19994;-67
2022/03/05 03:39:57;;;;;;;;;;;4.60;71.80;;;;;;5086774;28;19931;-67
2022/03/05 03:42:23;;;;;;;;;;;4.60;71.80;;;;;;5087238;28;19912;-67
2022/03/05 03:44:48;;;;;;;;;;;4.50;71.90;;;;;;5087154;28;19915;-67
2022/03/05 03:47:14;;;;;;;;;;;4.50;72.10;;;;;;5086343;28;19916;-67
2022/03/05 03:49:39;;;;;;;;;;;4.40;71.80;;;;;;5069222;28;20045;-67
2022/03/05 03:52:05;;;;;;;;;;;4.40;72.00;;;;;;5085209;28;19920;-67
2022/03/05 03:54:31;;;;;;;;;;;4.40;72.40;;;;;;5087424;28;19963;-67
2022/03/05 03:56:56;;;;;;;;;;;4.30;72.50;;;;;;5065352;28;19924;-67
2022/03/05 03:59:22;;;;;;;;;;;4.30;73.10;;;;;;5087825;28;19908;-67
2022/03/05 04:01:48;;;;;;;;;;;4.20;72.90;;;;;;5085848;28;20450;-67
2022/03/05 04:04:13;;;;;;;;;;;4.20;72.90;;;;;;5078018;28;19916;-67
2022/03/05 04:09:23;;;;;;;;;;;4.10;73.70;;;;;;5088431;28;19957;-67
2022/03/05 04:11:49;;;;;;;;;;;4.00;73.80;;;;;;5086427;28;19920;-67
2022/03/05 04:14:14;;;;;;;;;;;4.00;74.10;;;;;;5087655;28;19919;-67
2022/03/05 04:16:40;;;;;;;;;;;4.00;74.10;;;;;;5082858;28;20569;-67
2022/03/05 04:19:05;;;;;;;;;;;3.90;74.00;;;;;;5088401;28;19916;-67
2022/03/05 04:21:31;;;;;;;;;;;3.90;74.10;;;;;;5069014;28;20068;-67
2022/03/05 04:23:56;;;;;;;;;;;3.90;74.10;;;;;;5086237;28;19947;-67
2022/03/05 04:26:22;;;;;;;;;;;3.90;74.00;;;;;;5066173;28;19916;-67
2022/03/05 04:28:47;;;;;;;;;;;3.80;74.20;;;;;;5087516;28;19923;-67
2022/03/05 04:31:13;;;;;;;;;;;3.80;74.20;;;;;;5068417;28;20724;-67
2022/03/05 04:33:38;;;;;;;;;;;3.80;74.20;;;;;;5068980;28;19969;-67
2022/03/05 04:36:04;;;;;;;;;;;3.80;74.10;;;;;;5085521;28;20037;-67
2022/03/05 04:38:29;;;;;;;;;;;3.80;74.10;;;;;;5085728;28;19959;-67
2022/03/05 04:40:55;;;;;;;;;;;3.70;74.20;;;;;;5085418;28;19924;-67
2022/03/05 04:43:20;;;;;;;;;;;3.70;74.20;;;;;;5087803;28;20023;-67
2022/03/05 04:45:46;;;;;;;;;;;3.70;74.30;;;;;;5066627;28;19922;-67
2022/03/05 04:48:11;;;;;;;;;;;3.70;74.40;;;;;;5086274;28;19951;-67
2022/03/05 04:50:37;;;;;;;;;;;3.60;74.50;;;;;;5068954;28;19977;-67
2022/03/05 04:53:03;;;;;;;;;;;3.60;74.50;;;;;;5087997;28;19912;-67
2022/03/05 04:55:29;;;;;;;;;;;3.60;74.50;;;;;;5083974;28;19915;-67
2022/03/05 04:57:54;;;;;;;;;;;3.50;74.50;;;;;;5063555;28;20334;-67
2022/03/05 05:00:20;;;;;;;;;;;3.50;74.40;;;;;;5069008;28;19989;-67
2022/03/05 05:02:45;;;;;;;;;;;3.50;74.50;;;;;;5069097;28;19908;-67
2022/03/05 05:05:11;;;;;;;;;;;3.50;74.60;;;;;;5067447;28;19916;-67
2022/03/05 05:07:37;;;;;;;;;;;3.40;74.70;;;;;;5084221;28;20449;-67
2022/03/05 05:10:02;;;;;;;;;;;3.50;74.80;;;;;;5086529;28;19912;-67
2022/03/05 05:12:28;;;;;;;;;;;3.40;74.70;;;;;;5068575;28;19991;-67
2022/03/05 05:14:54;;;;;;;;;;;3.40;74.80;;;;;;5069052;28;19923;-67
2022/03/05 05:17:19;;;;;;;;;;;3.40;74.80;;;;;;5085907;28;19920;-67
2022/03/05 05:19:45;;;;;;;;;;;3.40;74.90;;;;;;5066235;28;20054;-67
2022/03/05 05:22:11;;;;;;;;;;;3.30;75.00;;;;;;5082596;28;19977;-67
2022/03/05 05:24:38;;;;;;;;;;;3.30;75.10;;;;;;5085202;28;19908;-67
2022/03/05 05:27:05;;;;;;;;;;;3.30;75.00;;;;;;5085034;28;20378;-67
2022/03/05 05:29:30;;;;;;;;;;;3.20;75.00;;;;;;5067626;28;19912;-67
2022/03/05 05:31:56;;;;;;;;;;;3.20;75.00;;;;;;5085385;28;20007;-67
2022/03/05 05:34:22;;;;;;;;;;;3.20;75.10;;;;;;5069223;28;19912;-67
2022/03/05 05:36:48;;;;;;;;;;;3.20;75.00;;;;;;5084449;28;19916;-67
2022/03/05 05:39:13;;;;;;;;;;;3.20;75.20;;;;;;5086154;28;20760;-67
2022/03/05 05:41:40;;;;;;;;;;;3.10;75.20;;;;;;5086022;28;19916;-67
2022/03/05 05:44:06;;;;;;;;;;;3.10;75.20;;;;;;5068545;28;19909;-67
2022/03/05 05:46:32;;;;;;;;;;;3.10;75.30;;;;;;5067880;28;19924;-67
2022/03/05 05:48:57;;;;;;;;;;;3.10;75.20;;;;;;5072386;28;19908;-67
2022/03/05 05:51:24;;;;;;;;;;;3.00;75.20;;;;;;5090121;28;19921;-67
2022/03/05 05:53:49;;;;;;;;;;;3.10;75.30;;;;;;5089036;28;19954;-67
2022/03/05 05:56:14;;;;;;;;;;;3.00;75.30;;;;;;5088722;28;20311;-67
2022/03/05 05:58:40;;;;;;;;;;;3.00;75.30;;;;;;5073587;28;19991;-67
2022/03/05 06:01:06;;;;;;;;;;;3.00;75.30;;;;;;5090254;28;19916;-67
2022/03/05 06:03:31;;;;;;;;;;;3.00;75.50;;;;;;5089839;28;19953;-66
2022/03/05 06:05:58;;;;;;;;;;;3.00;75.30;;;;;;5071224;28;19912;-67
2022/03/05 06:08:23;;;;;;;;;;;3.00;75.40;;;;;;5088133;28;19919;-67
2022/03/05 06:10:49;;;;;;;;;;;2.90;75.50;;;;;;5086101;28;19916;-67
2022/03/05 06:13:15;;;;;;;;;;;2.90;75.50;;;;;;5069372;28;20321;-67
2022/03/05 06:15:41;;;;;;;;;;;2.90;75.50;;;;;;5070614;28;19923;-67
2022/03/05 06:18:06;;;;;;;;;;;2.90;75.50;;;;;;5072301;28;19912;-66
2022/03/05 06:20:32;;;;;;;;;;;2.90;75.50;;;;;;5084616;28;19919;-66
2022/03/05 06:22:57;;;;;;;;;;;2.90;75.50;;;;;;5072849;28;19915;-66
2022/03/05 06:25:23;;;;;;;;;;;2.90;75.60;;;;;;5086732;28;19962;-67
2022/03/05 06:27:48;;;;;;;;;;;2.80;75.70;;;;;;5089582;28;20428;-66
2022/03/05 06:30:14;;;;;;;;;;;2.80;75.70;;;;;;5088471;28;19924;-67
2022/03/05 06:32:40;;;;;;;;;;;2.80;75.70;;;;;;5068928;28;20328;-66
2022/03/05 06:35:06;;;;;;;;;;;2.80;75.90;;;;;;5070900;28;19916;-67
2022/03/05 06:37:32;;;;;;;;;;;2.80;75.90;;;;;;5089784;28;19916;-66
2022/03/05 06:39:58;;;;;;;;;;;2.80;75.90;;;;;;5073094;28;19966;-67
2022/03/05 06:42:23;;;;;;;;;;;2.80;76.00;;;;;;5089318;28;20384;-67
2022/03/05 06:44:49;;;;;;;;;;;2.80;75.90;;;;;;5088451;28;19927;-67
2022/03/05 06:47:14;;;;;;;;;;;2.70;75.90;;;;;;5086646;28;19961;-66
2022/03/05 06:49:40;;;;;;;;;;;2.70;76.00;;;;;;5086047;28;19920;-67
2022/03/05 06:52:06;;;;;;;;;;;2.80;76.30;;;;;;5088784;28;20323;-69
2022/03/05 06:54:31;;;;;;;;;;;2.70;76.00;;;;;;5089119;28;19922;-67
2022/03/05 06:56:57;;;;;;;;;;;2.70;76.10;;;;;;5087043;28;19912;-66
2022/03/05 06:59:22;;;;;;;;;;;2.70;76.10;;;;;;5069442;28;19916;-67
2022/03/05 07:01:48;;;;;;;;;;;2.70;76.10;;;;;;5086970;28;19934;-66
2022/03/05 07:04:13;;;;;;;;;;;2.70;76.30;;;;;;5087801;28;20373;-67
2022/03/05 07:06:39;;;;;;;;;;;2.70;76.30;;;;;;5086549;28;19916;-66
2022/03/05 07:09:05;;;;;;;;;;;2.70;76.30;;;;;;5088467;28;19985;-67
2022/03/05 07:11:30;;;;;;;;;;;2.70;76.40;;;;;;5087169;28;19923;-67
2022/03/05 07:13:56;;;;;;;;;;;2.70;76.30;;;;;;5071168;28;19916;-66
2022/03/05 07:16:21;;;;;;;;;;;2.70;76.50;;;;;;5067543;28;20258;-67
2022/03/05 07:18:47;;;;;;;;;;;2.70;76.50;;;;;;5087402;28;20015;-67
2022/03/05 07:21:12;;;;;;;;;;;2.70;76.40;;;;;;5086927;28;19919;-67
2022/03/05 07:23:38;;;;;;;;;;;2.70;76.30;;;;;;5087181;28;19916;-67
2022/03/05 07:26:03;;;;;;;;;;;2.70;76.50;;;;;;5087679;28;20551;-66
2022/03/05 07:28:29;;;;;;;;;;;2.70;76.60;;;;;;5087376;28;20278;-66
2022/03/05 07:30:55;;;;;;;;;;;2.70;76.50;;;;;;5084770;28;19908;-66
2022/03/05 07:33:21;;;;;;;;;;;2.70;76.70;;;;;;5086793;28;19912;-66
2022/03/05 07:35:47;;;;;;;;;;;2.70;76.60;;;;;;5086947;28;19912;-66
2022/03/05 07:38:12;;;;;;;;;;;2.70;76.60;;;;;;5087107;28;19969;-67
2022/03/05 07:40:38;;;;;;;;;;;2.70;76.50;;;;;;5069035;28;20003;-66
2022/03/05 07:43:03;;;;;;;;;;;2.70;76.60;;;;;;5089939;28;19919;-66
2022/03/05 07:45:29;;;;;;;;;;;2.70;76.80;;;;;;5068070;28;19970;-67
2022/03/05 07:47:54;;;;;;;;;;;2.80;76.70;;;;;;5070949;28;19943;-66
2022/03/05 07:50:20;;;;;;;;;;;2.80;76.80;;;;;;5084712;28;20702;-67
2022/03/05 07:52:45;;;;;;;;;;;2.80;76.90;;;;;;5070033;28;19908;-67
2022/03/05 07:55:11;;;;;;;;;;;2.80;76.80;;;;;;5068478;28;19923;-66
2022/03/05 07:57:36;;;;;;;;;;;2.80;77.00;;;;;;5086664;28;20010;-67
2022/03/05 08:00:03;;;;;;;;;;;2.80;77.00;;;;;;5087439;28;19912;-67
2022/03/05 08:02:29;;;;;;;;;;;2.80;77.20;;;;;;5065301;28;20510;-66
2022/03/05 08:04:54;;;;;;;;;;;2.80;77.00;;;;;;5085961;28;19919;-66
2022/03/05 08:07:21;;;;;;;;;;;2.80;77.00;;;;;;5088462;28;19957;-66
2022/03/05 08:09:46;;;;;;;;;;;2.80;77.10;;;;;;5085948;28;19916;-67
2022/03/05 08:12:12;;;;;;;;;;;2.80;77.20;;;;;;5084707;28;20032;-66
2022/03/05 08:14:38;;;;;;;;;;;2.90;77.30;;;;;;5086288;28;20315;-66
2022/03/05 08:17:04;;;;;;;;;;;2.90;77.20;;;;;;5085893;28;19916;-67
2022/03/05 08:19:29;;;;;;;;;;;2.90;77.10;;;;;;5087358;28;19916;-66
2022/03/05 08:21:55;;;;;;;;;;;2.90;77.30;;;;;;5069857;28;19915;-66
2022/03/05 08:24:20;;;;;;;;;;;2.90;77.30;;;;;;5069852;28;19922;-67
2022/03/05 08:26:46;;;;;;;;;;;3.00;77.20;;;;;;5086170;28;19916;-66
2022/03/05 08:29:12;;;;;;;;;;;3.00;77.10;;;;;;5070738;28;19916;-66
2022/03/05 08:31:37;;;;;;;;;;;3.10;77.30;;;;;;5087507;28;19916;-67
2022/03/05 08:34:03;;;;;;;;;;;3.10;77.30;;;;;;5085048;28;19940;-66
2022/03/05 08:36:28;;;;;;;;;;;3.20;77.50;;;;;;5087366;28;19943;-67
2022/03/05 08:38:54;;;;;;;;;;;3.20;77.60;;;;;;5086931;28;20293;-67
2022/03/05 08:41:20;;;;;;;;;;;3.20;77.60;;;;;;5069264;28;19935;-66
2022/03/05 08:43:45;;;;;;;;;;;3.30;77.60;;;;;;5067207;28;19920;-67
2022/03/05 08:46:11;;;;;;;;;;;3.30;77.80;;;;;;5068003;28;19912;-67
2022/03/05 08:48:36;;;;;;;;;;;3.40;78.00;;;;;;5069004;28;20441;-66
2022/03/05 08:51:02;;;;;;;;;;;3.40;77.90;;;;;;5085726;28;19908;-67
2022/03/05 08:53:28;;;;;;;;;;;3.50;77.80;;;;;;5086871;28;19919;-67
2022/03/05 08:55:54;;;;;;;;;;;3.60;77.90;;;;;;5084839;28;19916;-66
2022/03/05 08:58:20;;;;;;;;;;;3.70;77.80;;;;;;5087213;28;19923;-67
2022/03/05 09:00:46;;;;;;;;;;;3.70;77.70;;;;;;5084599;28;19919;-67
2022/03/05 09:03:11;;;;;;;;;;;3.80;77.80;;;;;;5068544;28;19947;-67
2022/03/05 09:05:37;;;;;;;;;;;3.80;77.80;;;;;;5086614;28;19955;-67
2022/03/05 09:08:03;;;;;;;;;;;3.90;77.60;;;;;;5086705;28;20007;-66
2022/03/05 09:10:29;;;;;;;;;;;3.90;77.40;;;;;;5086708;28;19950;-67
2022/03/05 09:12:55;;;;;;;;;;;4.00;77.50;;;;;;5085996;28;19955;-67
2022/03/05 09:15:20;;;;;;;;;;;4.00;77.40;;;;;;5085661;28;19912;-67
2022/03/05 09:17:46;;;;;;;;;;;4.10;77.80;;;;;;5085889;28;20331;-67
2022/03/05 09:20:11;;;;;;;;;;;4.10;77.50;;;;;;5066837;28;19948;-67
2022/03/05 09:22:37;;;;;;;;;;;4.20;77.40;;;;;;5067901;28;19908;-67
2022/03/05 09:25:03;;;;;;;;;;;4.20;77.70;;;;;;5085103;28;19961;-67
2022/03/05 09:27:29;;;;;;;;;;;4.20;77.50;;;;;;5086133;28;19923;-67
2022/03/05 09:29:54;;;;;;;;;;;4.20;77.40;;;;;;5084595;28;20545;-67
2022/03/05 09:32:20;;;;;;;;;;;4.30;77.40;;;;;;5067751;28;19916;-67
2022/03/05 09:34:46;;;;;;;;;;;4.30;77.40;;;;;;5065284;28;20661;-67
2022/03/05 09:37:12;;;;;;;;;;;4.30;77.50;;;;;;5086337;28;20352;-67
2022/03/05 09:39:37;;;;;;;;;;;4.30;77.60;;;;;;5083872;28;20007;-67
2022/03/05 09:42:04;;;;;;;;;;;4.40;77.40;;;;;;5068147;28;19991;-67
2022/03/05 09:44:48;;;;;;;;;;;4.40;77.70;;;;;;5083652;28;19927;-67
2022/03/05 09:47:15;;;;;;;;;;;4.40;77.50;;;;;;5060962;28;20549;-67
2022/03/05 09:49:41;;;;;;;;;;;4.40;77.50;;;;;;5084284;28;20381;-67
2022/03/05 09:52:07;;;;;;;;;;;4.50;77.70;;;;;;5068757;28;19989;-67
2022/03/05 09:54:32;;;;;;;;;;;4.50;77.70;;;;;;5083907;28;19912;-67
2022/03/05 09:56:58;;;;;;;;;;;4.50;77.70;;;;;;5068637;28;19962;-67
2022/03/05 09:59:24;;;;;;;;;;;4.50;77.60;;;;;;5084574;28;19920;-67
2022/03/05 10:01:49;;;;;;;;;;;4.60;77.70;;;;;;5068693;28;19919;-67
2022/03/05 10:04:22;;;;;;;;;;;4.60;77.60;;;;;;5085962;28;19917;-67
2022/03/05 10:07:14;;;;;;;;;;;4.60;77.70;;;;;;5086915;28;19951;-67
2022/03/05 10:09:41;;;;;;;;;;;4.60;77.70;;;;;;5062932;28;19920;-67
2022/03/05 10:12:25;;;;;;;;;;;4.60;77.70;;;;;;5087132;28;19916;-67
2022/03/05 10:15:11;;;;;;;;;;;4.60;77.70;;;;;;5082127;28;19920;-67
2022/03/05 10:17:46;;;;;;;;;;;4.70;77.70;;;;;;5083472;28;19963;-67
2022/03/05 10:20:11;;;;;;;;;;;4.70;77.70;;;;;;5080659;28;20277;-67
2022/03/05 10:22:36;;;;;;;;;;;4.70;77.70;;;;;;5066101;28;19919;-67
2022/03/05 10:25:02;;;;;;;;;;;4.80;77.60;;;;;;5081316;28;19958;-67
2022/03/05 10:27:29;;;;;;;;;;;4.70;77.50;;;;;;5086090;28;19916;-67
2022/03/05 10:29:55;;;;;;;;;;;4.80;77.60;;;;;;5082554;28;20003;-67
2022/03/05 10:32:21;;;;;;;;;;;4.80;77.50;;;;;;5088099;28;20008;-67
2022/03/05 10:34:50;;;;;;;;;;;4.80;77.30;;;;;;5088278;28;20380;-67
2022/03/05 10:37:16;;;;;;;;;;;4.80;77.30;;;;;;5088561;28;19920;-67
2022/03/05 10:39:42;;;;;;;;;;;4.90;77.30;;;;;;5086549;28;19927;-67
2022/03/05 10:42:20;;;;;;;;;;;4.90;77.20;;;;;;5090232;28;19920;-68
2022/03/05 10:44:59;;;;;;;;;;;5.00;76.90;;;;;;5087299;28;19919;-67
2022/03/05 10:47:24;;;;;;;;;;;5.00;76.80;;;;;;5071250;28;19963;-67
2022/03/05 10:49:50;;;;;;;;;;;5.00;76.60;;;;;;5088133;28;19954;-67
2022/03/05 10:52:15;;;;;;;;;;;5.10;76.40;;;;;;5089813;28;19999;-67
2022/03/05 10:54:42;;;;;;;;;;;5.10;76.40;;;;;;5068178;28;19961;-67
2022/03/05 10:57:08;;;;;;;;;;;5.20;76.50;;;;;;5089343;28;19923;-68
2022/03/05 10:59:35;;;;;;;;;;;5.20;76.50;;;;;;5070079;28;19916;-68
2022/03/05 11:02:01;;;;;;;;;;;5.30;76.30;;;;;;5087085;28;19916;-68
2022/03/05 11:04:27;;;;;;;;;;;5.40;76.40;;;;;;5070842;28;19912;-68
2022/03/05 11:06:53;;;;;;;;;;;5.40;76.10;;;;;;5088976;28;19995;-68
2022/03/05 11:09:19;;;;;;;;;;;5.50;76.10;;;;;;5070755;28;20347;-68
2022/03/05 11:11:44;;;;;;;;;;;5.60;75.90;;;;;;5087191;28;19995;-68
2022/03/05 11:14:11;;;;;;;;;;;5.60;75.80;;;;;;5070219;28;19965;-68
2022/03/05 11:16:37;;;;;;;;;;;5.70;75.40;;;;;;5087369;28;19920;-68
2022/03/05 11:19:02;;;;;;;;;;;5.80;75.60;;;;;;5085677;28;19913;-68
2022/03/05 11:21:29;;;;;;;;;;;5.90;75.50;;;;;;5089888;28;20629;-68
2022/03/05 11:23:55;;;;;;;;;;;5.90;75.40;;;;;;5087540;28;19920;-68
2022/03/05 11:26:21;;;;;;;;;;;6.00;75.40;;;;;;5088913;28;19916;-68
2022/03/05 11:28:48;;;;;;;;;;;6.10;75.20;;;;;;5087297;28;19938;-68
2022/03/05 11:31:15;;;;;;;;;;;6.20;75.10;;;;;;5089185;28;19912;-68
2022/03/05 11:33:43;;;;;;;;;;;6.30;74.90;;;;;;5069345;28;19944;-68
2022/03/05 11:36:29;;;;;;;;;;;6.40;75.10;;;;;;5088402;28;19920;-68
2022/03/05 11:39:07;;;;;;;;;;;6.50;74.90;;;;;;5075128;28;19923;-68
2022/03/05 11:41:46;;;;;;;;;;;6.60;74.50;;;;;;5089678;28;19908;-68
2022/03/05 11:44:12;;;;;;;;;;;6.80;74.60;;;;;;5085543;28;19916;-68
2022/03/05 11:46:37;;;;;;;;;;;6.90;74.40;;;;;;5068076;28;19919;-68
2022/03/05 11:49:03;;;;;;;;;;;7.00;74.30;;;;;;5084950;28;19916;-68
2022/03/05 11:51:29;;;;;;;;;;;7.20;73.80;;;;;;5087053;28;19912;-68
2022/03/05 11:54:11;;;;;;;;;;;7.30;73.30;;;;;;5065359;28;20684;-68
2022/03/05 11:56:36;;;;;;;;;;;7.30;73.90;;;;;;5085117;28;19968;-68
2022/03/05 11:59:21;;;;;;;;;;;7.40;73.00;;;;;;5084550;28;19908;-68
2022/03/05 12:01:50;;;;;;;;;;;7.50;73.00;;;;;;5062949;28;20414;-68
2022/03/05 12:04:22;;;;;;;;;;;7.70;73.30;;;;;;5085920;28;20384;-68
2022/03/05 12:06:49;;;;;;;;;;;7.70;73.10;;;;;;5086040;28;19919;-68
2022/03/05 12:09:32;;;;;;;;;;;7.80;73.00;;;;;;5086495;28;19912;-68
2022/03/05 12:11:59;;;;;;;;;;;7.90;73.30;;;;;;5085752;28;19919;-68
2022/03/05 12:14:43;;;;;;;;;;;8.00;73.30;;;;;;5085837;28;20604;-68
2022/03/05 12:17:09;;;;;;;;;;;8.10;73.20;;;;;;5068404;28;20659;-68
2022/03/05 12:19:35;;;;;;;;;;;8.20;73.30;;;;;;5086238;28;20011;-68
2022/03/05 12:22:00;;;;;;;;;;;8.20;72.90;;;;;;5085266;28;19920;-68
2022/03/05 12:24:27;;;;;;;;;;;8.30;73.00;;;;;;5085000;28;19916;-68
2022/03/05 12:26:56;;;;;;;;;;;8.30;72.80;;;;;;5066990;28;19927;-68
2022/03/05 12:29:21;;;;;;;;;;;8.40;72.80;;;;;;5086262;28;19919;-68
2022/03/05 12:31:47;;;;;;;;;;;8.50;72.70;;;;;;5086965;28;20006;-68
2022/03/05 12:34:12;;;;;;;;;;;8.50;72.70;;;;;;5085630;28;19916;-68
2022/03/05 12:36:45;;;;;;;;;;;8.60;72.60;;;;;;5085700;28;19958;-69
2022/03/05 12:39:10;;;;;;;;;;;8.60;72.70;;;;;;5086631;28;20396;-69
2022/03/05 12:41:36;;;;;;;;;;;8.70;72.40;;;;;;5087947;28;19929;-69
2022/03/05 12:44:01;;;;;;;;;;;8.70;72.40;;;;;;5067746;28;19931;-69
2022/03/05 12:46:27;;;;;;;;;;;8.80;72.30;;;;;;5085792;28;19962;-69
2022/03/05 12:48:52;;;;;;;;;;;8.80;72.30;;;;;;5083702;28;19915;-69
2022/03/05 12:51:22;;;;;;;;;;;8.80;72.50;;;;;;5083759;28;19916;-69
2022/03/05 12:53:56;;;;;;;;;;;8.90;72.70;;;;;;5083854;28;19912;-69
2022/03/05 12:56:22;;;;;;;;;;;8.90;72.60;;;;;;5083214;28;20035;-69
2022/03/05 12:58:47;;;;;;;;;;;8.90;72.80;;;;;;5084483;28;20380;-70
2022/03/05 13:01:13;;;;;;;;;;;9.00;72.60;;;;;;5084295;28;20596;-69
2022/03/05 13:03:39;;;;;;;;;;;9.00;72.30;;;;;;5083629;28;20031;-69
2022/03/05 13:06:05;;;;;;;;;;;9.00;72.40;;;;;;5084829;28;20023;-69
2022/03/05 13:08:32;;;;;;;;;;;9.00;72.20;;;;;;5065991;28;20319;-70
2022/03/05 13:11:07;;;;;;;;;;;9.00;72.60;;;;;;5083670;28;20451;-69
2022/03/05 13:13:36;;;;;;;;;;;9.00;72.60;;;;;;5083378;28;19912;-69
2022/03/05 13:16:03;;;;;;;;;;;9.10;72.70;;;;;;5082149;28;20492;-69
2022/03/05 13:18:29;;;;;;;;;;;9.10;73.30;;;;;;5083176;28;20277;-69
2022/03/05 13:20:58;;;;;;;;;;;9.10;73.10;;;;;;5082842;28;19919;-69
2022/03/05 13:23:23;;;;;;;;;;;9.20;73.30;;;;;;5083835;28;20400;-69
2022/03/05 13:25:50;;;;;;;;;;;9.20;73.60;;;;;;5066182;28;19920;-69
2022/03/05 13:28:19;;;;;;;;;;;9.10;73.60;;;;;;5083049;28;19923;-69
2022/03/05 13:30:48;;;;;;;;;;;9.20;73.40;;;;;;5067689;28;19919;-69
2022/03/05 13:33:32;;;;;;;;;;;9.20;72.90;;;;;;5069735;28;19920;-69
2022/03/05 13:35:57;;;;;;;;;;;9.20;73.30;;;;;;5061778;28;20559;-69
2022/03/05 13:38:25;;;;;;;;;;;9.20;73.30;;;;;;5066859;28;19954;-69
2022/03/05 13:40:50;;;;;;;;;;;9.20;73.00;;;;;;5084167;28;19953;-69
2022/03/05 13:43:20;;;;;;;;;;;9.30;72.60;;;;;;5083020;28;20643;-69
2022/03/05 13:45:45;;;;;;;;;;;9.30;73.10;;;;;;5084814;28;20352;-69
2022/03/05 13:48:11;;;;;;;;;;;9.30;72.80;;;;;;5083782;28;20045;-69
2022/03/05 13:50:40;;;;;;;;;;;9.40;73.00;;;;;;5085940;28;19965;-69
2022/03/05 13:53:05;;;;;;;;;;;9.40;72.60;;;;;;5083523;28;19924;-69
2022/03/05 13:55:31;;;;;;;;;;;9.40;72.60;;;;;;5083955;28;20335;-69
2022/03/05 13:57:58;;;;;;;;;;;9.40;72.80;;;;;;5081862;28;19920;-69
2022/03/05 14:00:27;;;;;;;;;;;9.40;72.70;;;;;;5085811;28;20356;-69
2022/03/05 14:02:54;;;;;;;;;;;9.40;72.60;;;;;;5082543;28;20364;-69
2022/03/05 14:05:21;;;;;;;;;;;9.40;72.70;;;;;;5068406;28;19920;-70
2022/03/05 14:07:48;;;;;;;;;;;9.40;72.60;;;;;;5086776;28;19916;-69
2022/03/05 14:10:15;;;;;;;;;;;9.40;72.40;;;;;;5074193;28;19943;-70
2022/03/05 14:12:47;;;;;;;;;;;9.40;72.80;;;;;;5084944;28;19916;-69
2022/03/05 14:15:13;;;;;;;;;;;9.50;72.80;;;;;;5091002;28;20289;-69
2022/03/05 14:17:43;;;;;;;;;;;9.50;72.50;;;;;;5086925;28;19912;-69
2022/03/05 14:20:12;;;;;;;;;;;9.50;72.20;;;;;;5082684;28;19916;-69
2022/03/05 14:22:56;;;;;;;;;;;9.50;72.00;;;;;;5067841;28;19912;-69
2022/03/05 14:25:22;;;;;;;;;;;9.50;71.90;;;;;;5088850;28;19909;-69
2022/03/05 14:27:48;;;;;;;;;;;9.50;72.20;;;;;;5086831;28;19928;-69